This is the latest recevied weather packets stored in our database for station/object WX4HP-13. If no packets are shown the sender has not sent any weather packets the latest 10 day(s).
| Time | Temp. | Humidity | Pressure | Rain* | Wind** | Luminosity | Snow |
|---|---|---|---|---|---|---|---|
| 1778110197 | -17.78° C | 100% | 0 hPa | 2.54 mm | - | - | - |
| 1778109895 | 17.78° C | 94% | 1011.8 hPa | 6.86 mm | - | - | - |
| 1778109595 | 17.78° C | 94% | 1011.6 hPa | 10.41 mm | - | - | - |
| 1778109296 | 17.78° C | 95% | 1011.5 hPa | 11.43 mm | - | - | - |
| 1778108995 | 17.78° C | 94% | 1011.4 hPa | 12.19 mm | - | - | - |
| 1778108695 | 17.78° C | 95% | 1011.5 hPa | 13.46 mm | - | - | - |
| 1778108395 | 17.78° C | 95% | 1011.6 hPa | 14.73 mm | - | - | - |
| 1778108096 | 17.78° C | 95% | 1011.3 hPa | 16.51 mm | - | - | - |
| 1778107795 | 17.78° C | 95% | 1011.3 hPa | 18.54 mm | - | - | - |
| 1778107495 | 17.78° C | 95% | 1011.3 hPa | 20.07 mm | - | - | - |
| 1778107195 | 17.78° C | 95% | 1011.4 hPa | 19.81 mm | - | - | - |
| 1778106896 | 17.78° C | 94% | 1011.2 hPa | 17.27 mm | - | - | - |
| 1778106595 | 17.78° C | 94% | 1011.5 hPa | 12.95 mm | - | - | - |
| 1778106371 | 17.78° C | 94% | 1011.7 hPa | 9.4 mm | - | - | - |
| 1778106296 | 17.78° C | 94% | 1011.7 hPa | 9.4 mm | - | - | - |
| 1778105395 | 17.78° C | 92% | 1011.1 hPa | 6.35 mm | - | - | - |
| 1778105096 | 18.33° C | 92% | 1011 hPa | 5.08 mm | - | - | - |
| 1778104795 | 18.33° C | 91% | 1011 hPa | 3.3 mm | - | - | - |
| 1778104495 | 18.89° C | 90% | 1010.8 hPa | 1.52 mm | - | - | - |
| 1778104195 | 20.56° C | 84% | 1010.6 hPa | 0 mm | - | - | - |
| 1778103895 | 20.56° C | 86% | 1010.5 hPa | 0 mm | - | - | - |
| 1778103595 | 20.56° C | 85% | 1009.8 hPa | 0 mm | - | - | - |
| 1778103296 | 21.67° C | 81% | 1009.8 hPa | 0 mm | - | - | - |
| 1778102995 | 22.78° C | 80% | 1009.6 hPa | 0 mm | - | - | - |
| 1778102395 | 23.33° C | 81% | 1009.7 hPa | 0 mm | - | - | - |
* Rain latest hour (hover to see other rain measurements)
** Current wind speed in m/s (hover to see current wind gust speed)